sensor_id;sensor_type;location;lat;lon;timestamp;temperature;humidity
6018;DHT22;3037;51.068;13.780;2023-08-12T00:01:09;17.60;1.00
6018;DHT22;3037;51.068;13.780;2023-08-12T00:03:35;17.50;1.00
6018;DHT22;3037;51.068;13.780;2023-08-12T00:06:00;17.50;1.00
6018;DHT22;3037;51.068;13.780;2023-08-12T00:08:27;17.40;99.90
6018;DHT22;3037;51.068;13.780;2023-08-12T00:10:52;17.40;99.90
6018;DHT22;3037;51.068;13.780;2023-08-12T00:13:18;17.40;1.00
6018;DHT22;3037;51.068;13.780;2023-08-12T00:15:44;17.40;1.00
6018;DHT22;3037;51.068;13.780;2023-08-12T00:18:09;17.40;99.90
6018;DHT22;3037;51.068;13.780;2023-08-12T00:20:35;17.40;1.00
6018;DHT22;3037;51.068;13.780;2023-08-12T00:23:03;17.40;77.60
6018;DHT22;3037;51.068;13.780;2023-08-12T00:25:29;17.30;1.00
6018;DHT22;3037;51.068;13.780;2023-08-12T00:27:54;17.30;1.00
6018;DHT22;3037;51.068;13.780;2023-08-12T00:30:20;17.30;1.00
6018;DHT22;3037;51.068;13.780;2023-08-12T00:32:45;17.30;1.00
6018;DHT22;3037;51.068;13.780;2023-08-12T00:35:11;17.20;1.00
6018;DHT22;3037;51.068;13.780;2023-08-12T00:37:36;17.10;64.50
6018;DHT22;3037;51.068;13.780;2023-08-12T00:40:02;17.10;37.80
6018;DHT22;3037;51.068;13.780;2023-08-12T00:42:28;17.20;1.00
6018;DHT22;3037;51.068;13.780;2023-08-12T00:44:54;17.20;1.00
6018;DHT22;3037;51.068;13.780;2023-08-12T00:47:20;17.30;1.00
6018;DHT22;3037;51.068;13.780;2023-08-12T00:49:46;17.20;35.30
6018;DHT22;3037;51.068;13.780;2023-08-12T00:52:13;17.10;99.90
6018;DHT22;3037;51.068;13.780;2023-08-12T00:54:39;17.20;1.00
6018;DHT22;3037;51.068;13.780;2023-08-12T00:57:06;17.20;46.90
6018;DHT22;3037;51.068;13.780;2023-08-12T00:59:32;17.20;71.40
6018;DHT22;3037;51.068;13.780;2023-08-12T01:01:58;17.10;1.00
6018;DHT22;3037;51.068;13.780;2023-08-12T01:04:24;17.10;99.90
6018;DHT22;3037;51.068;13.780;2023-08-12T01:06:49;17.10;99.90
6018;DHT22;3037;51.068;13.780;2023-08-12T01:09:15;17.20;1.00
6018;DHT22;3037;51.068;13.780;2023-08-12T01:12:06;17.20;1.00
6018;DHT22;3037;51.068;13.780;2023-08-12T01:17:07;17.10;50.80
6018;DHT22;3037;51.068;13.780;2023-08-12T01:19:43;17.10;1.00
6018;DHT22;3037;51.068;13.780;2023-08-12T01:22:11;17.10;1.00
6018;DHT22;3037;51.068;13.780;2023-08-12T01:24:41;17.00;1.00
6018;DHT22;3037;51.068;13.780;2023-08-12T01:27:08;17.00;1.00
6018;DHT22;3037;51.068;13.780;2023-08-12T01:29:36;16.90;1.00
6018;DHT22;3037;51.068;13.780;2023-08-12T01:32:14;16.80;99.90
6018;DHT22;3037;51.068;13.780;2023-08-12T01:34:46;16.80;99.90
6018;DHT22;3037;51.068;13.780;2023-08-12T01:37:23;16.70;99.90
6018;DHT22;3037;51.068;13.780;2023-08-12T01:39:50;16.70;99.90
6018;DHT22;3037;51.068;13.780;2023-08-12T01:42:18;16.80;1.00
6018;DHT22;3037;51.068;13.780;2023-08-12T01:44:45;16.80;1.00
6018;DHT22;3037;51.068;13.780;2023-08-12T01:47:11;16.80;99.90
6018;DHT22;3037;51.068;13.780;2023-08-12T01:49:37;16.80;45.30
6018;DHT22;3037;51.068;13.780;2023-08-12T01:52:02;16.70;99.90
6018;DHT22;3037;51.068;13.780;2023-08-12T01:54:28;16.80;1.00
6018;DHT22;3037;51.068;13.780;2023-08-12T01:57:02;16.80;1.00
6018;DHT22;3037;51.068;13.780;2023-08-12T01:59:34;16.70;1.00
6018;DHT22;3037;51.068;13.780;2023-08-12T02:01:59;16.80;1.00
6018;DHT22;3037;51.068;13.780;2023-08-12T02:04:26;16.80;1.00
6018;DHT22;3037;51.068;13.780;2023-08-12T02:06:52;16.90;1.00
6018;DHT22;3037;51.068;13.780;2023-08-12T02:09:18;16.90;29.10
6018;DHT22;3037;51.068;13.780;2023-08-12T02:11:43;16.90;1.00
6018;DHT22;3037;51.068;13.780;2023-08-12T02:14:09;16.90;1.00
6018;DHT22;3037;51.068;13.780;2023-08-12T02:16:34;17.00;1.00
6018;DHT22;3037;51.068;13.780;2023-08-12T02:19:00;17.00;99.90
6018;DHT22;3037;51.068;13.780;2023-08-12T02:21:25;17.00;95.70
6018;DHT22;3037;51.068;13.780;2023-08-12T02:23:51;17.00;1.00
6018;DHT22;3037;51.068;13.780;2023-08-12T02:26:16;17.00;1.00
6018;DHT22;3037;51.068;13.780;2023-08-12T02:28:42;17.10;1.00
6018;DHT22;3037;51.068;13.780;2023-08-12T02:31:07;17.10;1.00
6018;DHT22;3037;51.068;13.780;2023-08-12T02:33:33;17.10;99.90
6018;DHT22;3037;51.068;13.780;2023-08-12T02:35:59;17.10;1.00
6018;DHT22;3037;51.068;13.780;2023-08-12T02:38:24;17.00;1.00
6018;DHT22;3037;51.068;13.780;2023-08-12T02:40:50;17.00;99.90
6018;DHT22;3037;51.068;13.780;2023-08-12T02:43:16;17.00;99.90
6018;DHT22;3037;51.068;13.780;2023-08-12T02:45:43;17.00;1.00
6018;DHT22;3037;51.068;13.780;2023-08-12T02:48:10;16.90;99.90
6018;DHT22;3037;51.068;13.780;2023-08-12T02:50:35;16.90;1.00
6018;DHT22;3037;51.068;13.780;2023-08-12T02:53:01;16.90;1.00
6018;DHT22;3037;51.068;13.780;2023-08-12T02:55:26;16.90;99.90
6018;DHT22;3037;51.068;13.780;2023-08-12T02:57:52;16.90;43.70
6018;DHT22;3037;51.068;13.780;2023-08-12T03:00:17;16.90;99.90
6018;DHT22;3037;51.068;13.780;2023-08-12T03:02:43;16.90;99.90
6018;DHT22;3037;51.068;13.780;2023-08-12T03:05:09;16.80;1.00
6018;DHT22;3037;51.068;13.780;2023-08-12T03:07:34;16.80;1.00
6018;DHT22;3037;51.068;13.780;2023-08-12T03:10:00;16.70;1.00
6018;DHT22;3037;51.068;13.780;2023-08-12T03:12:25;16.70;1.00
6018;DHT22;3037;51.068;13.780;2023-08-12T03:14:51;16.70;99.90
6018;DHT22;3037;51.068;13.780;2023-08-12T03:17:16;16.60;99.90
6018;DHT22;3037;51.068;13.780;2023-08-12T03:19:42;16.60;1.00
6018;DHT22;3037;51.068;13.780;2023-08-12T03:22:07;16.60;31.20
6018;DHT22;3037;51.068;13.780;2023-08-12T03:24:33;16.70;99.90
6018;DHT22;3037;51.068;13.780;2023-08-12T03:26:59;16.60;99.90
6018;DHT22;3037;51.068;13.780;2023-08-12T03:29:24;16.60;1.00
6018;DHT22;3037;51.068;13.780;2023-08-12T03:31:50;16.60;1.00
6018;DHT22;3037;51.068;13.780;2023-08-12T03:34:16;16.70;1.00
6018;DHT22;3037;51.068;13.780;2023-08-12T03:36:41;16.70;1.00
6018;DHT22;3037;51.068;13.780;2023-08-12T03:39:07;16.70;1.00
6018;DHT22;3037;51.068;13.780;2023-08-12T03:41:32;16.70;99.90
6018;DHT22;3037;51.068;13.780;2023-08-12T03:43:58;16.70;99.90
6018;DHT22;3037;51.068;13.780;2023-08-12T03:46:23;16.70;99.90
6018;DHT22;3037;51.068;13.780;2023-08-12T03:48:49;16.70;1.00
6018;DHT22;3037;51.068;13.780;2023-08-12T03:51:14;16.70;1.00
6018;DHT22;3037;51.068;13.780;2023-08-12T03:53:40;16.70;1.00
6018;DHT22;3037;51.068;13.780;2023-08-12T03:56:05;16.70;1.00
6018;DHT22;3037;51.068;13.780;2023-08-12T03:58:31;16.70;99.90
6018;DHT22;3037;51.068;13.780;2023-08-12T04:00:56;16.70;99.90
6018;DHT22;3037;51.068;13.780;2023-08-12T04:03:22;16.70;99.90
6018;DHT22;3037;51.068;13.780;2023-08-12T04:05:51;16.80;1.00
6018;DHT22;3037;51.068;13.780;2023-08-12T04:08:22;16.80;1.00
6018;DHT22;3037;51.068;13.780;2023-08-12T04:10:48;16.80;99.90
6018;DHT22;3037;51.068;13.780;2023-08-12T04:13:14;16.80;99.90
6018;DHT22;3037;51.068;13.780;2023-08-12T04:15:40;16.80;1.00
6018;DHT22;3037;51.068;13.780;2023-08-12T04:18:06;16.80;1.00
6018;DHT22;3037;51.068;13.780;2023-08-12T04:20:32;16.90;1.00
6018;DHT22;3037;51.068;13.780;2023-08-12T04:22:58;16.90;1.00
6018;DHT22;3037;51.068;13.780;2023-08-12T04:25:23;17.00;1.00
6018;DHT22;3037;51.068;13.780;2023-08-12T04:27:49;17.00;1.00
6018;DHT22;3037;51.068;13.780;2023-08-12T04:30:18;17.00;1.00
6018;DHT22;3037;51.068;13.780;2023-08-12T04:32:44;17.00;99.90
6018;DHT22;3037;51.068;13.780;2023-08-12T04:35:09;17.10;99.90
6018;DHT22;3037;51.068;13.780;2023-08-12T04:37:36;17.20;1.00
6018;DHT22;3037;51.068;13.780;2023-08-12T04:40:02;17.30;1.00
6018;DHT22;3037;51.068;13.780;2023-08-12T04:42:30;17.40;99.90
6018;DHT22;3037;51.068;13.780;2023-08-12T04:44:55;17.40;1.00
6018;DHT22;3037;51.068;13.780;2023-08-12T04:47:21;17.50;1.00
6018;DHT22;3037;51.068;13.780;2023-08-12T04:49:46;17.50;1.00
6018;DHT22;3037;51.068;13.780;2023-08-12T04:52:12;17.60;1.00
6018;DHT22;3037;51.068;13.780;2023-08-12T04:54:37;17.60;1.00
6018;DHT22;3037;51.068;13.780;2023-08-12T04:57:03;17.70;1.00
6018;DHT22;3037;51.068;13.780;2023-08-12T04:59:28;17.60;1.00
6018;DHT22;3037;51.068;13.780;2023-08-12T05:01:54;17.70;1.00
6018;DHT22;3037;51.068;13.780;2023-08-12T05:04:19;17.80;99.90
6018;DHT22;3037;51.068;13.780;2023-08-12T05:06:45;17.80;99.90
6018;DHT22;3037;51.068;13.780;2023-08-12T05:09:11;17.80;99.90
6018;DHT22;3037;51.068;13.780;2023-08-12T05:11:36;17.90;1.00
6018;DHT22;3037;51.068;13.780;2023-08-12T05:14:02;17.90;1.00
6018;DHT22;3037;51.068;13.780;2023-08-12T05:16:27;18.00;1.00
6018;DHT22;3037;51.068;13.780;2023-08-12T05:18:54;18.10;1.00
6018;DHT22;3037;51.068;13.780;2023-08-12T05:21:19;18.20;1.00
6018;DHT22;3037;51.068;13.780;2023-08-12T05:23:45;18.30;1.00
6018;DHT22;3037;51.068;13.780;2023-08-12T05:26:11;18.50;1.00
6018;DHT22;3037;51.068;13.780;2023-08-12T05:28:36;18.60;1.00
6018;DHT22;3037;51.068;13.780;2023-08-12T05:31:02;18.70;99.90
6018;DHT22;3037;51.068;13.780;2023-08-12T05:33:28;18.90;99.90
6018;DHT22;3037;51.068;13.780;2023-08-12T05:35:53;19.10;99.90
6018;DHT22;3037;51.068;13.780;2023-08-12T05:38:19;19.20;99.90
6018;DHT22;3037;51.068;13.780;2023-08-12T05:40:44;19.40;99.90
6018;DHT22;3037;51.068;13.780;2023-08-12T05:43:10;19.60;99.90
6018;DHT22;3037;51.068;13.780;2023-08-12T05:45:35;19.70;65.40
6018;DHT22;3037;51.068;13.780;2023-08-12T05:48:01;19.90;11.30
6018;DHT22;3037;51.068;13.780;2023-08-12T05:50:26;20.00;1.00
6018;DHT22;3037;51.068;13.780;2023-08-12T05:52:52;20.20;1.00
6018;DHT22;3037;51.068;13.780;2023-08-12T05:55:17;20.20;1.00
6018;DHT22;3037;51.068;13.780;2023-08-12T05:57:43;20.60;1.00
6018;DHT22;3037;51.068;13.780;2023-08-12T06:00:09;20.60;1.00
6018;DHT22;3037;51.068;13.780;2023-08-12T06:02:34;20.70;1.00
6018;DHT22;3037;51.068;13.780;2023-08-12T06:05:00;20.90;1.00
6018;DHT22;3037;51.068;13.780;2023-08-12T06:07:26;21.20;1.00
6018;DHT22;3037;51.068;13.780;2023-08-12T06:09:51;21.70;1.00
6018;DHT22;3037;51.068;13.780;2023-08-12T06:12:17;23.60;1.00
6018;DHT22;3037;51.068;13.780;2023-08-12T06:14:42;25.70;1.00
6018;DHT22;3037;51.068;13.780;2023-08-12T06:17:08;26.60;1.00
6018;DHT22;3037;51.068;13.780;2023-08-12T06:19:33;27.90;1.00
6018;DHT22;3037;51.068;13.780;2023-08-12T06:21:59;29.40;1.00
6018;DHT22;3037;51.068;13.780;2023-08-12T06:24:24;30.10;1.00
6018;DHT22;3037;51.068;13.780;2023-08-12T06:26:50;30.60;1.00
6018;DHT22;3037;51.068;13.780;2023-08-12T06:29:16;30.20;1.00
6018;DHT22;3037;51.068;13.780;2023-08-12T06:31:42;29.90;1.00
6018;DHT22;3037;51.068;13.780;2023-08-12T06:34:07;31.50;1.00
6018;DHT22;3037;51.068;13.780;2023-08-12T06:36:33;32.40;1.00
6018;DHT22;3037;51.068;13.780;2023-08-12T06:38:58;32.20;1.00
6018;DHT22;3037;51.068;13.780;2023-08-12T06:41:24;32.60;1.00
6018;DHT22;3037;51.068;13.780;2023-08-12T06:43:50;32.60;1.00
6018;DHT22;3037;51.068;13.780;2023-08-12T06:46:15;30.80;1.00
6018;DHT22;3037;51.068;13.780;2023-08-12T06:48:41;30.20;1.00
6018;DHT22;3037;51.068;13.780;2023-08-12T06:51:06;29.90;1.00
6018;DHT22;3037;51.068;13.780;2023-08-12T06:53:40;29.80;1.00
6018;DHT22;3037;51.068;13.780;2023-08-12T06:56:06;29.60;1.00
6018;DHT22;3037;51.068;13.780;2023-08-12T06:58:31;29.10;1.00
6018;DHT22;3037;51.068;13.780;2023-08-12T07:00:57;29.50;1.00
6018;DHT22;3037;51.068;13.780;2023-08-12T07:03:24;32.40;1.00
6018;DHT22;3037;51.068;13.780;2023-08-12T07:05:50;34.00;1.00
6018;DHT22;3037;51.068;13.780;2023-08-12T07:08:15;33.60;1.00
6018;DHT22;3037;51.068;13.780;2023-08-12T07:10:41;33.20;1.00
6018;DHT22;3037;51.068;13.780;2023-08-12T07:13:07;31.90;1.00
6018;DHT22;3037;51.068;13.780;2023-08-12T07:15:33;31.70;1.00
6018;DHT22;3037;51.068;13.780;2023-08-12T07:17:58;31.60;1.00
6018;DHT22;3037;51.068;13.780;2023-08-12T07:20:25;31.40;1.00
6018;DHT22;3037;51.068;13.780;2023-08-12T07:22:50;31.10;1.00
6018;DHT22;3037;51.068;13.780;2023-08-12T07:25:16;31.30;1.00
6018;DHT22;3037;51.068;13.780;2023-08-12T07:27:41;30.60;1.00
6018;DHT22;3037;51.068;13.780;2023-08-12T07:30:07;33.20;1.00
6018;DHT22;3037;51.068;13.780;2023-08-12T07:32:34;35.70;1.00
6018;DHT22;3037;51.068;13.780;2023-08-12T07:34:59;33.30;1.00
6018;DHT22;3037;51.068;13.780;2023-08-12T07:37:25;32.10;1.00
6018;DHT22;3037;51.068;13.780;2023-08-12T07:39:51;33.90;1.00
6018;DHT22;3037;51.068;13.780;2023-08-12T07:42:16;36.80;1.00
6018;DHT22;3037;51.068;13.780;2023-08-12T07:44:42;36.80;1.00
6018;DHT22;3037;51.068;13.780;2023-08-12T07:47:08;36.20;1.00
6018;DHT22;3037;51.068;13.780;2023-08-12T07:49:34;37.20;1.00
6018;DHT22;3037;51.068;13.780;2023-08-12T07:52:00;36.40;1.00
6018;DHT22;3037;51.068;13.780;2023-08-12T07:54:26;37.30;1.00
6018;DHT22;3037;51.068;13.780;2023-08-12T07:56:52;37.10;1.00
6018;DHT22;3037;51.068;13.780;2023-08-12T07:59:19;37.20;1.00
6018;DHT22;3037;51.068;13.780;2023-08-12T08:01:45;37.90;1.00
6018;DHT22;3037;51.068;13.780;2023-08-12T08:04:10;38.90;1.00
6018;DHT22;3037;51.068;13.780;2023-08-12T08:06:36;39.60;1.00
6018;DHT22;3037;51.068;13.780;2023-08-12T08:09:02;39.20;1.00
6018;DHT22;3037;51.068;13.780;2023-08-12T08:11:29;37.70;1.00
6018;DHT22;3037;51.068;13.780;2023-08-12T08:13:55;38.30;1.00
6018;DHT22;3037;51.068;13.780;2023-08-12T08:16:21;37.20;1.00
6018;DHT22;3037;51.068;13.780;2023-08-12T08:18:47;38.20;1.00
6018;DHT22;3037;51.068;13.780;2023-08-12T08:21:13;38.30;1.00
6018;DHT22;3037;51.068;13.780;2023-08-12T08:23:40;37.40;1.00
6018;DHT22;3037;51.068;13.780;2023-08-12T08:26:06;37.00;1.00
6018;DHT22;3037;51.068;13.780;2023-08-12T08:28:32;37.00;1.00
6018;DHT22;3037;51.068;13.780;2023-08-12T08:30:58;37.00;1.00
6018;DHT22;3037;51.068;13.780;2023-08-12T08:33:24;37.20;1.00
6018;DHT22;3037;51.068;13.780;2023-08-12T08:35:50;37.50;1.00
6018;DHT22;3037;51.068;13.780;2023-08-12T08:38:16;37.10;1.00
6018;DHT22;3037;51.068;13.780;2023-08-12T08:40:42;37.20;1.00
6018;DHT22;3037;51.068;13.780;2023-08-12T08:43:08;36.60;1.00
6018;DHT22;3037;51.068;13.780;2023-08-12T08:45:33;35.70;1.00
6018;DHT22;3037;51.068;13.780;2023-08-12T08:48:02;36.70;1.00
6018;DHT22;3037;51.068;13.780;2023-08-12T08:50:29;38.10;1.00
6018;DHT22;3037;51.068;13.780;2023-08-12T08:52:56;37.50;1.00
6018;DHT22;3037;51.068;13.780;2023-08-12T08:55:22;37.50;1.00
6018;DHT22;3037;51.068;13.780;2023-08-12T08:57:48;37.30;1.00
6018;DHT22;3037;51.068;13.780;2023-08-12T09:00:16;38.40;1.00
6018;DHT22;3037;51.068;13.780;2023-08-12T09:02:46;38.40;1.00
6018;DHT22;3037;51.068;13.780;2023-08-12T09:05:14;37.80;1.00
6018;DHT22;3037;51.068;13.780;2023-08-12T09:07:41;36.50;1.00
6018;DHT22;3037;51.068;13.780;2023-08-12T09:10:07;36.60;1.00
6018;DHT22;3037;51.068;13.780;2023-08-12T09:12:34;36.30;1.00
6018;DHT22;3037;51.068;13.780;2023-08-12T09:14:59;36.10;1.00
6018;DHT22;3037;51.068;13.780;2023-08-12T09:17:25;35.70;1.00
6018;DHT22;3037;51.068;13.780;2023-08-12T09:19:51;36.40;1.00
6018;DHT22;3037;51.068;13.780;2023-08-12T09:22:18;37.30;1.00
6018;DHT22;3037;51.068;13.780;2023-08-12T09:24:43;37.20;1.00
6018;DHT22;3037;51.068;13.780;2023-08-12T09:27:09;36.80;1.00
6018;DHT22;3037;51.068;13.780;2023-08-12T09:29:35;36.90;1.00
6018;DHT22;3037;51.068;13.780;2023-08-12T09:32:18;35.70;1.00
6018;DHT22;3037;51.068;13.780;2023-08-12T09:34:52;35.70;1.00
6018;DHT22;3037;51.068;13.780;2023-08-12T09:37:19;36.30;1.00
6018;DHT22;3037;51.068;13.780;2023-08-12T09:39:45;35.50;1.00
6018;DHT22;3037;51.068;13.780;2023-08-12T09:42:12;35.80;1.00
6018;DHT22;3037;51.068;13.780;2023-08-12T09:44:38;35.50;1.00
6018;DHT22;3037;51.068;13.780;2023-08-12T09:47:06;34.90;1.00
6018;DHT22;3037;51.068;13.780;2023-08-12T09:49:31;34.60;1.00
6018;DHT22;3037;51.068;13.780;2023-08-12T09:51:57;35.00;1.00
6018;DHT22;3037;51.068;13.780;2023-08-12T09:54:26;34.30;1.00
6018;DHT22;3037;51.068;13.780;2023-08-12T09:56:56;33.40;1.00
6018;DHT22;3037;51.068;13.780;2023-08-12T09:59:22;33.50;1.00
6018;DHT22;3037;51.068;13.780;2023-08-12T10:01:49;33.10;1.00
6018;DHT22;3037;51.068;13.780;2023-08-12T10:04:21;32.50;1.00
6018;DHT22;3037;51.068;13.780;2023-08-12T10:06:48;32.20;1.00
6018;DHT22;3037;51.068;13.780;2023-08-12T10:09:15;31.90;1.00
6018;DHT22;3037;51.068;13.780;2023-08-12T10:11:42;31.60;1.00
6018;DHT22;3037;51.068;13.780;2023-08-12T10:14:11;31.40;1.00
6018;DHT22;3037;51.068;13.780;2023-08-12T10:16:37;31.60;1.00
6018;DHT22;3037;51.068;13.780;2023-08-12T10:19:05;31.40;1.00
6018;DHT22;3037;51.068;13.780;2023-08-12T10:21:31;31.40;1.00
6018;DHT22;3037;51.068;13.780;2023-08-12T10:24:00;31.20;1.00
6018;DHT22;3037;51.068;13.780;2023-08-12T10:26:27;31.00;1.00
6018;DHT22;3037;51.068;13.780;2023-08-12T10:28:54;30.70;1.00
6018;DHT22;3037;51.068;13.780;2023-08-12T10:31:20;30.60;1.00
6018;DHT22;3037;51.068;13.780;2023-08-12T10:33:46;30.30;1.00
6018;DHT22;3037;51.068;13.780;2023-08-12T10:36:15;30.20;1.00
6018;DHT22;3037;51.068;13.780;2023-08-12T10:38:41;30.20;1.00
6018;DHT22;3037;51.068;13.780;2023-08-12T10:41:24;30.70;1.00
6018;DHT22;3037;51.068;13.780;2023-08-12T10:43:54;30.40;1.00
6018;DHT22;3037;51.068;13.780;2023-08-12T10:46:33;30.80;1.00
6018;DHT22;3037;51.068;13.780;2023-08-12T10:49:10;30.90;1.00
6018;DHT22;3037;51.068;13.780;2023-08-12T10:51:47;30.50;1.00
6018;DHT22;3037;51.068;13.780;2023-08-12T10:54:16;30.60;1.00
6018;DHT22;3037;51.068;13.780;2023-08-12T10:57:10;30.20;1.00
6018;DHT22;3037;51.068;13.780;2023-08-12T11:02:32;29.90;1.00
6018;DHT22;3037;51.068;13.780;2023-08-12T11:05:03;29.70;1.00
6018;DHT22;3037;51.068;13.780;2023-08-12T11:10:11;29.50;1.00
6018;DHT22;3037;51.068;13.780;2023-08-12T11:12:39;29.50;1.00
6018;DHT22;3037;51.068;13.780;2023-08-12T11:15:05;29.50;1.00
6018;DHT22;3037;51.068;13.780;2023-08-12T11:17:37;29.40;1.00
6018;DHT22;3037;51.068;13.780;2023-08-12T11:20:09;29.70;1.00
6018;DHT22;3037;51.068;13.780;2023-08-12T11:22:40;30.30;1.00
6018;DHT22;3037;51.068;13.780;2023-08-12T11:25:07;30.50;1.00
6018;DHT22;3037;51.068;13.780;2023-08-12T11:27:44;30.90;1.00
6018;DHT22;3037;51.068;13.780;2023-08-12T11:30:12;31.30;1.00
6018;DHT22;3037;51.068;13.780;2023-08-12T11:32:41;31.80;1.00
6018;DHT22;3037;51.068;13.780;2023-08-12T11:35:08;32.20;1.00
6018;DHT22;3037;51.068;13.780;2023-08-12T11:37:35;32.10;1.00
6018;DHT22;3037;51.068;13.780;2023-08-12T11:40:02;32.70;1.00
6018;DHT22;3037;51.068;13.780;2023-08-12T11:42:28;32.50;1.00
6018;DHT22;3037;51.068;13.780;2023-08-12T11:44:54;32.20;1.00
6018;DHT22;3037;51.068;13.780;2023-08-12T11:47:20;31.30;1.00
6018;DHT22;3037;51.068;13.780;2023-08-12T11:49:45;31.30;1.00
6018;DHT22;3037;51.068;13.780;2023-08-12T11:52:11;31.10;1.00
6018;DHT22;3037;51.068;13.780;2023-08-12T11:54:37;30.70;1.00
6018;DHT22;3037;51.068;13.780;2023-08-12T11:57:03;30.50;1.00
6018;DHT22;3037;51.068;13.780;2023-08-12T11:59:30;30.20;1.00
6018;DHT22;3037;51.068;13.780;2023-08-12T12:01:56;30.00;1.00
6018;DHT22;3037;51.068;13.780;2023-08-12T12:04:22;30.10;1.00
6018;DHT22;3037;51.068;13.780;2023-08-12T12:06:47;30.10;1.00
6018;DHT22;3037;51.068;13.780;2023-08-12T12:09:13;30.50;1.00
6018;DHT22;3037;51.068;13.780;2023-08-12T12:11:41;30.80;1.00
6018;DHT22;3037;51.068;13.780;2023-08-12T12:14:08;31.70;1.00
6018;DHT22;3037;51.068;13.780;2023-08-12T12:19:03;32.80;1.00
6018;DHT22;3037;51.068;13.780;2023-08-12T12:21:30;32.10;1.00
6018;DHT22;3037;51.068;13.780;2023-08-12T12:23:56;33.20;1.00
6018;DHT22;3037;51.068;13.780;2023-08-12T12:26:22;33.50;1.00
6018;DHT22;3037;51.068;13.780;2023-08-12T12:28:48;33.30;1.00
6018;DHT22;3037;51.068;13.780;2023-08-12T12:31:13;32.70;1.00
6018;DHT22;3037;51.068;13.780;2023-08-12T12:33:39;32.40;1.00
6018;DHT22;3037;51.068;13.780;2023-08-12T12:36:04;32.00;1.00
6018;DHT22;3037;51.068;13.780;2023-08-12T12:38:30;32.00;1.00
6018;DHT22;3037;51.068;13.780;2023-08-12T12:40:56;31.60;1.00
6018;DHT22;3037;51.068;13.780;2023-08-12T12:43:21;31.90;1.00
6018;DHT22;3037;51.068;13.780;2023-08-12T12:45:48;31.70;1.00
6018;DHT22;3037;51.068;13.780;2023-08-12T12:48:13;31.20;1.00
6018;DHT22;3037;51.068;13.780;2023-08-12T12:50:39;31.10;1.00
6018;DHT22;3037;51.068;13.780;2023-08-12T12:53:05;31.50;1.00
6018;DHT22;3037;51.068;13.780;2023-08-12T12:55:30;31.90;1.00
6018;DHT22;3037;51.068;13.780;2023-08-12T12:57:56;31.40;1.00
6018;DHT22;3037;51.068;13.780;2023-08-12T13:00:21;32.00;1.00
6018;DHT22;3037;51.068;13.780;2023-08-12T13:02:47;32.00;1.00
6018;DHT22;3037;51.068;13.780;2023-08-12T13:05:12;31.60;1.00
6018;DHT22;3037;51.068;13.780;2023-08-12T13:07:38;31.70;1.00
6018;DHT22;3037;51.068;13.780;2023-08-12T13:10:04;31.50;1.00
6018;DHT22;3037;51.068;13.780;2023-08-12T13:12:29;31.30;1.00
6018;DHT22;3037;51.068;13.780;2023-08-12T13:14:55;31.50;1.00
6018;DHT22;3037;51.068;13.780;2023-08-12T13:17:20;31.50;1.00
6018;DHT22;3037;51.068;13.780;2023-08-12T13:19:46;31.30;1.00
6018;DHT22;3037;51.068;13.780;2023-08-12T13:22:11;31.30;1.00
6018;DHT22;3037;51.068;13.780;2023-08-12T13:24:37;30.80;1.00
6018;DHT22;3037;51.068;13.780;2023-08-12T13:27:02;30.80;1.00
6018;DHT22;3037;51.068;13.780;2023-08-12T13:29:28;30.70;1.00
6018;DHT22;3037;51.068;13.780;2023-08-12T13:31:55;30.80;1.00
6018;DHT22;3037;51.068;13.780;2023-08-12T13:34:21;30.70;1.00
6018;DHT22;3037;51.068;13.780;2023-08-12T13:36:46;30.80;1.00
6018;DHT22;3037;51.068;13.780;2023-08-12T13:39:12;30.50;1.00
6018;DHT22;3037;51.068;13.780;2023-08-12T13:41:37;30.50;1.00
6018;DHT22;3037;51.068;13.780;2023-08-12T13:44:03;30.50;1.00
6018;DHT22;3037;51.068;13.780;2023-08-12T13:46:29;30.50;1.00
6018;DHT22;3037;51.068;13.780;2023-08-12T13:48:54;31.00;1.00
6018;DHT22;3037;51.068;13.780;2023-08-12T13:51:20;30.80;1.00
6018;DHT22;3037;51.068;13.780;2023-08-12T13:53:45;30.70;1.00
6018;DHT22;3037;51.068;13.780;2023-08-12T13:56:11;30.70;1.00
6018;DHT22;3037;51.068;13.780;2023-08-12T13:58:36;30.70;1.00
6018;DHT22;3037;51.068;13.780;2023-08-12T14:01:02;30.80;1.00
6018;DHT22;3037;51.068;13.780;2023-08-12T14:03:27;31.00;1.00
6018;DHT22;3037;51.068;13.780;2023-08-12T14:05:54;31.10;1.00
6018;DHT22;3037;51.068;13.780;2023-08-12T14:08:19;31.10;1.00
6018;DHT22;3037;51.068;13.780;2023-08-12T14:10:46;31.30;1.00
6018;DHT22;3037;51.068;13.780;2023-08-12T14:13:12;31.10;1.00
6018;DHT22;3037;51.068;13.780;2023-08-12T14:15:37;30.80;1.00
6018;DHT22;3037;51.068;13.780;2023-08-12T14:18:03;31.30;1.00
6018;DHT22;3037;51.068;13.780;2023-08-12T14:20:29;31.80;1.00
6018;DHT22;3037;51.068;13.780;2023-08-12T14:22:54;31.30;1.00
6018;DHT22;3037;51.068;13.780;2023-08-12T14:25:20;31.50;1.00
6018;DHT22;3037;51.068;13.780;2023-08-12T14:27:45;31.40;1.00
6018;DHT22;3037;51.068;13.780;2023-08-12T14:30:11;31.80;1.00
6018;DHT22;3037;51.068;13.780;2023-08-12T14:32:37;31.10;1.00
6018;DHT22;3037;51.068;13.780;2023-08-12T14:35:03;30.50;1.00
6018;DHT22;3037;51.068;13.780;2023-08-12T14:37:30;30.20;1.00
6018;DHT22;3037;51.068;13.780;2023-08-12T14:39:56;30.20;1.00
6018;DHT22;3037;51.068;13.780;2023-08-12T14:42:21;30.60;1.00
6018;DHT22;3037;51.068;13.780;2023-08-12T14:44:47;30.90;1.00
6018;DHT22;3037;51.068;13.780;2023-08-12T14:47:12;30.90;1.00
6018;DHT22;3037;51.068;13.780;2023-08-12T14:49:38;31.30;1.00
6018;DHT22;3037;51.068;13.780;2023-08-12T14:52:04;32.10;1.00
6018;DHT22;3037;51.068;13.780;2023-08-12T14:54:29;32.10;1.00
6018;DHT22;3037;51.068;13.780;2023-08-12T14:56:55;32.20;1.00
6018;DHT22;3037;51.068;13.780;2023-08-12T14:59:20;32.00;1.00
6018;DHT22;3037;51.068;13.780;2023-08-12T15:01:46;31.80;1.00
6018;DHT22;3037;51.068;13.780;2023-08-12T15:04:11;32.00;1.00
6018;DHT22;3037;51.068;13.780;2023-08-12T15:06:37;31.50;1.00
6018;DHT22;3037;51.068;13.780;2023-08-12T15:09:02;31.10;1.00
6018;DHT22;3037;51.068;13.780;2023-08-12T15:11:28;30.90;1.00
6018;DHT22;3037;51.068;13.780;2023-08-12T15:13:53;31.40;1.00
6018;DHT22;3037;51.068;13.780;2023-08-12T15:16:19;31.40;1.00
6018;DHT22;3037;51.068;13.780;2023-08-12T15:18:44;31.00;1.00
6018;DHT22;3037;51.068;13.780;2023-08-12T15:21:10;31.10;1.00
6018;DHT22;3037;51.068;13.780;2023-08-12T15:23:35;31.20;1.00
6018;DHT22;3037;51.068;13.780;2023-08-12T15:26:01;31.40;1.00
6018;DHT22;3037;51.068;13.780;2023-08-12T15:28:28;31.30;1.00
6018;DHT22;3037;51.068;13.780;2023-08-12T15:30:54;31.30;1.00
6018;DHT22;3037;51.068;13.780;2023-08-12T15:36:33;31.80;1.00
6018;DHT22;3037;51.068;13.780;2023-08-12T15:39:01;31.30;1.00
6018;DHT22;3037;51.068;13.780;2023-08-12T15:41:27;31.10;1.00
6018;DHT22;3037;51.068;13.780;2023-08-12T15:43:52;30.90;1.00
6018;DHT22;3037;51.068;13.780;2023-08-12T15:46:18;30.70;1.00
6018;DHT22;3037;51.068;13.780;2023-08-12T15:48:43;30.60;1.00
6018;DHT22;3037;51.068;13.780;2023-08-12T15:51:09;30.40;1.00
6018;DHT22;3037;51.068;13.780;2023-08-12T15:53:34;30.30;1.00
6018;DHT22;3037;51.068;13.780;2023-08-12T15:56:00;30.10;1.00
6018;DHT22;3037;51.068;13.780;2023-08-12T15:58:26;30.10;1.00
6018;DHT22;3037;51.068;13.780;2023-08-12T16:00:51;30.00;1.00
6018;DHT22;3037;51.068;13.780;2023-08-12T16:03:17;30.10;1.00
6018;DHT22;3037;51.068;13.780;2023-08-12T16:05:43;30.00;1.00
6018;DHT22;3037;51.068;13.780;2023-08-12T16:08:09;30.00;1.00